aviador You're here:

YBWX Decoded Metar

in
Report Time2018-06-23 05:00:00
UTC Time2018-06-23 05:55:21
Flight Rules unknown UNKNOWN
Wind080° at 21 kt
W.Decomp.*RWY 03: 13.5 kt HW 16.1 kt RCW
W.Rank080° ranks 17
Current wind is above 080° avg. (11.4)
VisibilityN/A
Phenomena:N/A
Clouds:N/A
Expected CloudBase > 6,400 ft AGL from Temp-Dew spread
CeilingNone
Temp23°C
Dew Point07°C (36% RH)
AAT14.8°C
QNH1020 hPa
Raw Report
METAR YBWX 230500Z AUTO 08021KT //// // ////// 23/07 Q1020=

Extra information for YBWX:More info

Social comments